Time;durP1;ratioP1;P1;durP2;ratioP2;P2;SDS_P1;SDS_P2;PMS_P1;PMS_P2;Temp;Humidity;BMP_temperature;BMP_pressure;BME280_temperature;BME280_humidity;BME280_pressure;Samples;Min_cycle;Max_cycle;Signal;HPM_P1;HPM_P2
2022/07/06 04:00:34;;;;;;;4.20;1.50;;;16.90;96.30;;;;;;5971960;23;22370;-80
2022/07/06 04:03:00;;;;;;;3.90;1.67;;;17.00;96.30;;;;;;5004911;28;20567;-80
2022/07/06 04:05:26;;;;;;;4.00;1.53;;;17.30;96.30;;;;;;5000233;28;20416;-80
2022/07/06 04:07:51;;;;;;;1.60;1.10;;;17.70;96.30;;;;;;4995042;28;20435;-79
2022/07/06 04:10:17;;;;;;;1.93;1.53;;;17.90;96.30;;;;;;5001960;28;20181;-79
2022/07/06 04:12:44;;;;;;;2.10;1.40;;;17.90;96.30;;;;;;4993657;28;20511;-78
2022/07/06 04:15:11;;;;;;;2.53;1.30;;;17.70;96.30;;;;;;4994747;28;20189;-79
2022/07/06 04:17:51;;;;;;;4.27;1.50;;;17.20;96.30;;;;;;4995987;28;20527;-78
2022/07/06 04:25:17;;;;;;;1.50;1.40;;;18.10;96.30;;;;;;5646463;22;20232;-81
2022/07/06 04:27:43;;;;;;;2.60;1.60;;;18.20;96.30;;;;;;4993151;28;20413;-81
2022/07/06 04:30:09;;;;;;;3.03;1.50;;;18.10;96.30;;;;;;4993261;28;20232;-81
2022/07/06 04:32:35;;;;;;;3.30;1.40;;;18.30;96.30;;;;;;4993100;28;20202;-81
2022/07/06 04:35:01;;;;;;;8.13;1.43;;;18.60;96.30;;;;;;4993228;28;20402;-77
2022/07/06 04:37:27;;;;;;;2.23;1.70;;;18.90;96.30;;;;;;4992478;28;20209;-80
2022/07/06 04:39:52;;;;;;;2.03;1.60;;;19.30;96.30;;;;;;4993277;28;20931;-80
2022/07/06 04:42:18;;;;;;;2.90;1.50;;;19.50;96.30;;;;;;4992742;28;20332;-81
2022/07/06 04:44:45;;;;;;;2.00;1.70;;;19.00;96.30;;;;;;4993296;28;20158;-81
2022/07/06 04:47:11;;;;;;;4.00;1.70;;;18.70;96.30;;;;;;4992961;28;20269;-78
2022/07/06 04:49:36;;;;;;;8.60;1.60;;;18.90;96.30;;;;;;4992552;28;20444;-77
2022/07/06 04:52:02;;;;;;;3.10;1.80;;;18.70;96.30;;;;;;4990228;28;20206;-77
2022/07/06 04:54:28;;;;;;;9.83;2.33;;;19.30;96.30;;;;;;4982717;28;20177;-77
2022/07/06 04:56:53;;;;;;;5.73;2.03;;;18.60;96.30;;;;;;5005085;28;20212;-78
2022/07/06 04:59:19;;;;;;;5.00;1.80;;;18.30;96.30;;;;;;4973480;28;20217;-78
2022/07/06 05:01:44;;;;;;;5.70;2.07;;;18.90;96.30;;;;;;4973150;28;20269;-78
2022/07/06 05:04:10;;;;;;;3.27;1.70;;;19.80;96.30;;;;;;4975164;28;20180;-78
2022/07/06 05:06:35;;;;;;;3.70;2.10;;;20.20;96.30;;;;;;4979628;28;20159;-80
2022/07/06 05:09:01;;;;;;;2.50;1.70;;;20.80;96.30;;;;;;4985095;28;20181;-80
2022/07/06 05:11:27;;;;;;;10.87;2.30;;;21.40;96.30;;;;;;5012998;28;20655;-79
2022/07/06 05:13:53;;;;;;;6.80;1.40;;;22.00;96.30;;;;;;5011424;28;20540;-79
2022/07/06 05:16:18;;;;;;;2.03;1.50;;;22.80;96.30;;;;;;5012735;28;20455;-80
2022/07/06 05:18:44;;;;;;;4.43;1.80;;;23.50;95.20;;;;;;5012382;28;20188;-79
2022/07/06 05:21:09;;;;;;;4.70;1.80;;;23.40;95.00;;;;;;5013287;28;20220;-79
2022/07/06 05:23:35;;;;;;;3.43;1.60;;;23.20;94.80;;;;;;5012972;28;20184;-79
2022/07/06 05:26:00;;;;;;;3.43;1.70;;;23.70;93.60;;;;;;5003501;28;20207;-80
2022/07/06 05:28:27;;;;;;;4.13;2.00;;;23.60;91.50;;;;;;4991151;28;20189;-79
2022/07/06 05:30:52;;;;;;;2.17;1.60;;;23.90;90.60;;;;;;4993087;28;20227;-79
2022/07/06 05:33:18;;;;;;;1.83;1.30;;;23.60;90.50;;;;;;4993891;28;20412;-79
2022/07/06 05:35:43;;;;;;;2.03;1.57;;;23.50;92.00;;;;;;4991202;28;20200;-80
2022/07/06 05:38:09;;;;;;;2.70;1.80;;;24.10;92.00;;;;;;4988169;28;20189;-79
2022/07/06 05:40:34;;;;;;;3.53;1.90;;;24.60;90.40;;;;;;4989665;28;20201;-80
2022/07/06 05:43:00;;;;;;;2.13;1.90;;;24.60;87.80;;;;;;4976862;28;20181;-80
2022/07/06 05:45:25;;;;;;;3.03;1.63;;;23.90;89.60;;;;;;4988437;28;20186;-79
2022/07/06 05:50:35;;;;;;;2.90;1.70;;;23.90;90.90;;;;;;4987778;28;20223;-79
2022/07/06 05:53:03;;;;;;;6.77;1.73;;;23.90;90.40;;;;;;4986753;28;20424;-79
2022/07/06 05:55:29;;;;;;;1.93;1.40;;;23.70;88.90;;;;;;4988206;28;20742;-80
2022/07/06 05:57:55;;;;;;;2.20;1.53;;;23.60;93.10;;;;;;4984149;28;20424;-80
2022/07/06 06:00:22;;;;;;;3.33;1.50;;;24.20;89.60;;;;;;4985444;28;20177;-80
2022/07/06 06:02:47;;;;;;;6.03;1.60;;;24.60;86.70;;;;;;4991870;28;20431;-80
2022/07/06 06:05:14;;;;;;;2.00;1.60;;;24.30;88.00;;;;;;4991849;28;20423;-80
2022/07/06 06:07:40;;;;;;;6.87;1.80;;;24.40;87.80;;;;;;4991919;28;20170;-80
2022/07/06 06:10:08;;;;;;;5.53;1.80;;;24.50;86.60;;;;;;4993133;28;20412;-80
2022/07/06 06:12:34;;;;;;;2.93;1.57;;;24.90;89.50;;;;;;4990280;28;20435;-80
2022/07/06 06:15:00;;;;;;;2.23;1.67;;;24.70;87.40;;;;;;4996863;28;20431;-80
2022/07/06 06:17:26;;;;;;;5.30;1.87;;;24.00;87.30;;;;;;5004093;28;20205;-80
2022/07/06 06:19:51;;;;;;;3.07;1.53;;;24.40;87.30;;;;;;5005216;28;20415;-79
2022/07/06 06:22:17;;;;;;;4.20;1.80;;;24.30;88.40;;;;;;5004057;28;20219;-79
2022/07/06 06:24:42;;;;;;;7.50;1.57;;;24.60;88.00;;;;;;4997532;28;20193;-80
2022/07/06 06:27:08;;;;;;;2.60;1.73;;;24.50;85.10;;;;;;4995314;28;20272;-78
2022/07/06 06:29:33;;;;;;;4.30;1.40;;;24.40;87.00;;;;;;4994154;28;20189;-77
2022/07/06 06:31:59;;;;;;;2.07;1.30;;;24.80;85.30;;;;;;4995430;28;20251;-77
2022/07/06 06:34:24;;;;;;;9.57;3.37;;;24.60;86.70;;;;;;4994103;28;20173;-77
2022/07/06 06:36:50;;;;;;;3.83;1.47;;;24.90;88.10;;;;;;4995266;28;20197;-79
2022/07/06 06:39:15;;;;;;;12.90;2.13;;;25.00;84.10;;;;;;4996293;28;20560;-77
2022/07/06 06:41:41;;;;;;;7.30;1.67;;;25.30;84.70;;;;;;5014838;28;20279;-77
2022/07/06 06:44:06;;;;;;;2.67;1.60;;;25.00;84.50;;;;;;5011564;28;20275;-77
2022/07/06 06:46:32;;;;;;;6.80;1.93;;;25.10;85.80;;;;;;4988179;28;20598;-80
2022/07/06 06:48:57;;;;;;;4.40;1.53;;;25.00;84.10;;;;;;4979259;28;20197;-78
2022/07/06 06:51:23;;;;;;;8.60;1.77;;;23.00;89.10;;;;;;4979640;28;20631;-80
2022/07/06 06:53:48;;;;;;;5.00;1.83;;;22.70;92.90;;;;;;4990526;28;20276;-77
2022/07/06 06:56:14;;;;;;;6.00;2.13;;;21.60;92.20;;;;;;4991613;28;20224;-78
2022/07/06 06:58:40;;;;;;;3.67;1.80;;;20.90;96.30;;;;;;4982437;28;20264;-76
2022/07/06 07:01:05;;;;;;;4.90;1.60;;;20.40;96.30;;;;;;4994001;28;20224;-76
2022/07/06 07:03:31;;;;;;;2.60;1.60;;;19.80;96.30;;;;;;4975647;28;20273;-76
2022/07/06 07:05:57;;;;;;;3.20;1.60;;;19.40;96.30;;;;;;4976726;28;20193;-77
2022/07/06 07:08:23;;;;;;;8.37;1.70;;;19.30;96.30;;;;;;4978391;28;20440;-78
2022/07/06 07:10:49;;;;;;;2.73;1.67;;;19.00;96.30;;;;;;4978611;28;20296;-77
2022/07/06 07:13:14;;;;;;;7.90;1.80;;;18.30;96.30;;;;;;4989494;28;20188;-75
2022/07/06 07:15:40;;;;;;;4.50;1.93;;;17.90;96.30;;;;;;4994504;28;20204;-75
2022/07/06 07:18:06;;;;;;;7.37;1.60;;;18.50;96.30;;;;;;4992988;28;20197;-75
2022/07/06 07:20:33;;;;;;;2.60;1.17;;;18.90;96.30;;;;;;4992749;28;20227;-76
2022/07/06 07:23:02;;;;;;;1.63;1.33;;;19.30;96.30;;;;;;4981366;28;20516;-76
2022/07/06 07:25:27;;;;;;;3.53;1.53;;;20.30;96.30;;;;;;4974292;28;20433;-75
2022/07/06 07:27:53;;;;;;;5.80;1.50;;;19.70;96.30;;;;;;4974905;28;20417;-78
2022/07/06 07:30:19;;;;;;;7.53;1.30;;;19.20;96.30;;;;;;4979293;28;20180;-78
2022/07/06 07:32:45;;;;;;;2.63;1.20;;;18.80;96.30;;;;;;4975910;28;20257;-78
2022/07/06 07:35:11;;;;;;;4.43;1.47;;;18.30;96.30;;;;;;4974624;28;20573;-78
2022/07/06 07:37:36;;;;;;;6.77;1.47;;;18.20;96.30;;;;;;4974128;28;20182;-78
2022/07/06 07:40:02;;;;;;;2.77;1.60;;;18.40;96.30;;;;;;4989955;28;20177;-78
2022/07/06 07:42:28;;;;;;;3.97;1.33;;;19.10;96.30;;;;;;5013504;28;20715;-78
2022/07/06 07:44:53;;;;;;;5.27;1.57;;;19.30;96.30;;;;;;5013738;28;20411;-78
2022/07/06 07:47:19;;;;;;;2.40;1.30;;;20.00;96.30;;;;;;4994613;28;20269;-78
2022/07/06 07:49:44;;;;;;;3.63;1.93;;;20.00;96.30;;;;;;4974978;28;20194;-78
2022/07/06 07:52:10;;;;;;;3.73;1.13;;;20.50;95.10;;;;;;4974366;28;20209;-78
2022/07/06 07:54:36;;;;;;;2.73;1.50;;;20.50;95.00;;;;;;4973103;28;20182;-78
2022/07/06 07:57:02;;;;;;;3.07;1.30;;;20.20;96.30;;;;;;4979635;28;20548;-78
2022/07/06 07:59:27;;;;;;;4.67;1.87;;;21.10;96.30;;;;;;4973468;28;20630;-78
2022/07/06 08:01:53;;;;;;;3.93;1.20;;;21.80;95.60;;;;;;4974190;28;20206;-78
2022/07/06 08:04:19;;;;;;;3.23;1.50;;;22.40;92.60;;;;;;4974184;28;20721;-78
2022/07/06 08:06:44;;;;;;;3.40;1.30;;;21.70;94.20;;;;;;4977192;28;20926;-78
2022/07/06 08:09:10;;;;;;;3.83;1.63;;;20.60;95.00;;;;;;4976818;28;20737;-78
2022/07/06 08:11:35;;;;;;;8.07;1.60;;;19.90;96.30;;;;;;4976801;28;20223;-78
2022/07/06 08:14:02;;;;;;;5.20;1.20;;;19.70;96.30;;;;;;4978163;28;20824;-78
2022/07/06 08:16:28;;;;;;;4.43;1.60;;;19.80;96.30;;;;;;4989924;28;20791;-78
2022/07/06 08:18:54;;;;;;;3.00;1.10;;;20.30;96.30;;;;;;4981051;28;20428;-78
2022/07/06 08:21:20;;;;;;;5.33;1.80;;;20.40;96.20;;;;;;4975465;28;20445;-78
2022/07/06 08:23:45;;;;;;;2.33;1.20;;;21.10;96.30;;;;;;4973961;28;20193;-78
2022/07/06 08:26:11;;;;;;;2.60;1.13;;;21.90;92.70;;;;;;4972903;28;20665;-78
2022/07/06 08:28:37;;;;;;;4.87;1.30;;;21.90;93.30;;;;;;4974816;28;20182;-78
2022/07/06 08:31:03;;;;;;;6.70;1.63;;;21.70;92.60;;;;;;4979835;28;20201;-78
2022/07/06 08:33:28;;;;;;;10.40;1.80;;;21.30;93.30;;;;;;4978053;28;20436;-78
2022/07/06 08:35:54;;;;;;;5.80;1.30;;;20.80;95.90;;;;;;4973073;28;20612;-78
2022/07/06 08:38:19;;;;;;;8.80;1.63;;;20.30;96.30;;;;;;4973317;28;20240;-78
2022/07/06 08:40:48;;;;;;;2.83;1.47;;;19.80;96.30;;;;;;4999210;28;20571;-78
2022/07/06 08:43:15;;;;;;;6.40;1.33;;;19.50;96.30;;;;;;5011444;28;20173;-78
2022/07/06 08:45:43;;;;;;;5.60;1.50;;;19.40;96.30;;;;;;5012528;28;20482;-78
2022/07/06 08:48:10;;;;;;;6.90;1.47;;;19.40;96.30;;;;;;5001878;28;20421;-77
2022/07/06 08:50:36;;;;;;;8.80;1.67;;;19.60;96.30;;;;;;4982183;28;20508;-76
2022/07/06 08:53:02;;;;;;;4.20;1.50;;;19.30;96.30;;;;;;4976651;28;20437;-75
2022/07/06 08:55:28;;;;;;;2.60;1.67;;;19.00;96.30;;;;;;4982696;28;21011;-76
2022/07/06 08:57:57;;;;;;;4.80;1.27;;;19.00;96.30;;;;;;4987942;28;20433;-77
2022/07/06 09:00:24;;;;;;;2.33;1.40;;;19.80;96.30;;;;;;4973107;28;20178;-75
2022/07/06 09:02:51;;;;;;;6.03;1.43;;;20.70;96.30;;;;;;4976596;28;20959;-76
2022/07/06 09:05:17;;;;;;;9.00;1.70;;;20.60;94.20;;;;;;4973731;28;20414;-76
2022/07/06 09:07:45;;;;;;;3.20;1.60;;;19.70;96.20;;;;;;4983870;28;20425;-76
2022/07/06 09:10:11;;;;;;;2.93;1.20;;;19.10;96.30;;;;;;4993336;28;20410;-77
2022/07/06 09:12:37;;;;;;;2.60;1.70;;;18.70;96.30;;;;;;4983972;28;20445;-76
2022/07/06 09:15:03;;;;;;;7.17;1.50;;;19.70;96.30;;;;;;4975743;28;20428;-78
2022/07/06 09:17:29;;;;;;;5.87;2.33;;;20.50;96.30;;;;;;4976102;28;20228;-76
2022/07/06 09:19:56;;;;;;;5.73;1.47;;;20.30;95.10;;;;;;4992064;28;20251;-75
2022/07/06 09:22:31;;;;;;;6.53;1.57;;;19.80;96.30;;;;;;4996395;28;20728;-77
2022/07/06 09:25:09;;;;;;;7.03;1.43;;;20.50;96.30;;;;;;4995975;28;20428;-78
2022/07/06 09:27:47;;;;;;;4.87;1.27;;;20.30;96.20;;;;;;4994381;28;20428;-76
2022/07/06 09:30:14;;;;;;;5.43;1.57;;;20.30;95.60;;;;;;4993850;28;20417;-76
2022/07/06 09:32:41;;;;;;;3.10;1.20;;;20.80;95.00;;;;;;4982418;28;20504;-76
2022/07/06 09:35:08;;;;;;;5.30;1.30;;;21.30;89.30;;;;;;4976212;28;20432;-78
2022/07/06 09:37:33;;;;;;;2.73;1.27;;;21.20;89.20;;;;;;4975917;28;20460;-78
2022/07/06 09:39:59;;;;;;;7.90;1.37;;;20.50;89.50;;;;;;4979067;28;20428;-76
2022/07/06 09:42:26;;;;;;;4.50;1.20;;;19.80;93.70;;;;;;4981581;28;20251;-76
2022/07/06 09:44:52;;;;;;;2.83;1.23;;;20.30;96.30;;;;;;4973002;28;20257;-76
2022/07/06 09:47:20;;;;;;;9.53;1.40;;;21.60;92.20;;;;;;4977156;28;20947;-76
2022/07/06 10:28:39;;;;;;;5.60;2.40;;;22.90;85.80;;;;;;6046807;22;21429;-78
2022/07/06 10:31:06;;;;;;;2.93;1.40;;;23.00;88.10;;;;;;4988053;28;20435;-78
2022/07/06 10:33:33;;;;;;;3.00;1.20;;;23.80;87.00;;;;;;4960122;28;20516;-77
2022/07/06 10:35:59;;;;;;;6.20;1.20;;;23.10;83.10;;;;;;4978438;28;20456;-77
2022/07/06 10:38:32;;;;;;;3.57;1.10;;;23.50;85.40;;;;;;4996276;28;20428;-77
2022/07/06 10:41:16;;;;;;;4.47;1.90;;;24.60;84.50;;;;;;4996608;28;20186;-78
2022/07/06 10:43:44;;;;;;;2.10;1.10;;;24.20;79.50;;;;;;4976765;28;20422;-78
2022/07/06 10:46:12;;;;;;;2.43;0.90;;;23.20;81.70;;;;;;4979276;28;20543;-78
2022/07/06 15:53:01;;;;;;;3.33;1.07;;;20.90;81.80;;;;;;5720241;23;20492;-78
2022/07/06 15:55:27;;;;;;;4.33;0.97;;;21.60;80.80;;;;;;4976130;28;20515;-77
2022/07/06 15:57:53;;;;;;;7.63;1.17;;;22.40;78.40;;;;;;4993398;28;20619;-77
2022/07/06 16:00:18;;;;;;;4.17;0.93;;;22.70;76.50;;;;;;4993631;28;20194;-77
2022/07/06 16:02:44;;;;;;;2.30;0.90;;;22.40;75.10;;;;;;4976161;28;20178;-77
2022/07/06 16:05:11;;;;;;;3.43;1.00;;;22.20;75.60;;;;;;4994042;28;20201;-77
2022/07/06 16:07:36;;;;;;;8.17;5.80;;;22.20;76.20;;;;;;4975419;28;20421;-80
2022/07/06 16:10:03;;;;;;;2.53;0.90;;;21.80;75.40;;;;;;4975291;28;20205;-77
2022/07/06 16:12:29;;;;;;;2.83;1.03;;;21.30;78.70;;;;;;4992568;28;20257;-77
2022/07/06 16:14:54;;;;;;;2.37;1.30;;;21.20;79.90;;;;;;4993511;28;21045;-77
2022/07/06 16:17:20;;;;;;;4.93;1.97;;;21.30;78.30;;;;;;4993468;28;20264;-78
2022/07/06 16:19:45;;;;;;;4.73;1.23;;;20.80;78.00;;;;;;4993310;28;20288;-77
2022/07/06 16:22:11;;;;;;;4.13;1.13;;;20.20;78.50;;;;;;4991945;28;20173;-78
2022/07/06 16:24:36;;;;;;;2.47;1.10;;;19.80;79.50;;;;;;4992226;28;20617;-77
2022/07/06 16:27:02;;;;;;;1.70;0.73;;;19.50;81.20;;;;;;4992486;28;20285;-78
2022/07/06 16:29:28;;;;;;;1.93;0.90;;;19.30;81.70;;;;;;4974665;28;20737;-78
2022/07/06 16:31:53;;;;;;;1.70;0.80;;;19.50;84.00;;;;;;4992867;28;20205;-78
2022/07/06 16:34:19;;;;;;;2.13;0.80;;;19.40;81.80;;;;;;4990479;28;20165;-78
2022/07/06 16:36:44;;;;;;;5.80;1.03;;;19.30;82.50;;;;;;4978397;28;20555;-79
2022/07/06 16:39:10;;;;;;;2.17;0.80;;;19.50;82.60;;;;;;4984799;28;20269;-78
2022/07/06 16:41:35;;;;;;;1.20;0.70;;;19.60;79.40;;;;;;4977488;28;20182;-78
2022/07/06 16:44:01;;;;;;;1.87;1.03;;;19.80;79.70;;;;;;4978862;28;20548;-78
2022/07/06 16:46:28;;;;;;;7.50;0.87;;;19.90;80.20;;;;;;4983188;28;20181;-78
2022/07/06 16:48:54;;;;;;;6.70;1.23;;;20.00;80.60;;;;;;4977141;28;20306;-77
2022/07/06 16:51:19;;;;;;;1.80;1.00;;;19.90;80.90;;;;;;4986121;28;20436;-78
2022/07/06 16:53:44;;;;;;;6.17;1.60;;;19.70;81.20;;;;;;4984213;28;20201;-78
2022/07/06 16:56:10;;;;;;;1.43;0.87;;;19.60;82.60;;;;;;4993362;28;20240;-78
2022/07/06 17:44:57;;;;;;;6.30;1.50;;;17.80;87.10;;;;;;5480260;23;20476;-77
2022/07/06 17:47:22;;;;;;;3.27;1.00;;;17.70;87.30;;;;;;4992271;28;20947;-77
2022/07/06 17:49:48;;;;;;;2.13;0.87;;;17.70;87.60;;;;;;4963595;28;20638;-77
2022/07/06 17:52:16;;;;;;;19.50;1.37;;;17.70;87.00;;;;;;4972737;28;20602;-78
2022/07/06 17:54:43;;;;;;;3.70;0.80;;;17.60;88.10;;;;;;4955378;28;20572;-77
2022/07/06 17:57:10;;;;;;;5.83;1.17;;;17.50;87.30;;;;;;4972521;28;20511;-76
2022/07/06 17:59:35;;;;;;;6.20;0.80;;;17.40;87.40;;;;;;4972543;28;20456;-76
2022/07/06 18:02:01;;;;;;;2.50;0.70;;;17.30;88.60;;;;;;4972766;28;20808;-75
2022/07/06 18:04:26;;;;;;;1.70;0.80;;;17.20;88.80;;;;;;4972588;28;20919;-75
2022/07/06 18:06:52;;;;;;;2.63;0.90;;;17.20;89.10;;;;;;4972572;28;20178;-75
2022/07/06 18:09:17;;;;;;;2.13;0.97;;;17.20;89.90;;;;;;4975117;28;20240;-75
2022/07/06 18:11:43;;;;;;;3.73;1.30;;;17.20;89.60;;;;;;4976317;28;20650;-75
2022/07/06 18:14:08;;;;;;;3.40;0.77;;;17.20;88.50;;;;;;4976190;28;20179;-75
2022/07/06 18:16:34;;;;;;;4.53;0.90;;;17.20;88.90;;;;;;4976162;28;20333;-75
2022/07/06 18:18:59;;;;;;;2.40;0.80;;;17.10;88.40;;;;;;4975838;28;20205;-75
2022/07/06 18:21:25;;;;;;;6.40;1.00;;;17.10;88.20;;;;;;4976099;28;20253;-75
2022/07/06 18:23:50;;;;;;;2.60;0.90;;;17.00;88.90;;;;;;4975977;28;20174;-75
2022/07/06 18:26:16;;;;;;;4.83;0.80;;;17.00;88.00;;;;;;4975971;28;20253;-75
2022/07/06 18:28:41;;;;;;;2.70;0.90;;;16.90;87.40;;;;;;4975638;28;20516;-75
2022/07/06 18:31:07;;;;;;;4.77;0.90;;;16.90;87.50;;;;;;4975920;28;20182;-75
2022/07/06 18:33:34;;;;;;;5.33;1.10;;;16.80;88.30;;;;;;4975867;28;20183;-76
2022/07/06 18:36:00;;;;;;;5.90;1.00;;;16.60;89.60;;;;;;4975777;28;20190;-75
2022/07/06 18:38:26;;;;;;;2.33;1.00;;;16.50;89.50;;;;;;4975549;28;20425;-75
2022/07/06 18:40:51;;;;;;;2.70;0.73;;;16.50;89.60;;;;;;4957541;28;20186;-76
2022/07/06 18:43:17;;;;;;;4.40;1.37;;;16.30;90.90;;;;;;4975015;28;20194;-76
2022/07/06 18:45:44;;;;;;;6.47;0.93;;;16.20;91.20;;;;;;4974943;28;20190;-76
2022/07/06 18:48:11;;;;;;;11.50;1.00;;;16.00;91.70;;;;;;4974596;28;20202;-75
2022/07/06 18:50:40;;;;;;;2.33;1.07;;;15.80;94.50;;;;;;4971441;28;20429;-74
2022/07/06 18:53:06;;;;;;;5.30;0.90;;;15.60;95.90;;;;;;4974162;28;20440;-75
2022/07/06 18:55:32;;;;;;;3.50;1.30;;;15.40;96.30;;;;;;4956809;28;20755;-76
2022/07/06 18:57:57;;;;;;;4.57;0.80;;;15.20;96.30;;;;;;4974018;28;20460;-76
2022/07/06 19:00:23;;;;;;;7.90;1.20;;;15.10;96.30;;;;;;4974405;28;20190;-74
2022/07/06 19:02:49;;;;;;;3.03;1.10;;;15.00;96.30;;;;;;4975440;28;20175;-74
2022/07/06 19:05:14;;;;;;;2.97;0.80;;;14.90;96.30;;;;;;4957978;28;20178;-74
2022/07/06 19:07:40;;;;;;;6.60;0.90;;;14.90;96.30;;;;;;4974855;28;20410;-75
2022/07/06 19:10:06;;;;;;;7.23;0.93;;;14.90;96.30;;;;;;4975258;28;20198;-75
2022/07/06 19:12:32;;;;;;;2.57;1.10;;;15.00;96.30;;;;;;4974522;28;20260;-74
2022/07/06 19:14:58;;;;;;;6.60;0.97;;;15.10;96.30;;;;;;4975073;28;20445;-76
2022/07/06 19:17:23;;;;;;;6.00;1.03;;;15.10;96.30;;;;;;4974585;28;20253;-78
2022/07/06 19:19:49;;;;;;;2.00;0.83;;;15.20;96.30;;;;;;4974531;28;20717;-75
2022/07/06 19:22:15;;;;;;;4.53;1.00;;;15.20;96.30;;;;;;4957799;28;20170;-75
2022/07/06 19:24:40;;;;;;;3.50;1.00;;;15.10;96.30;;;;;;4975033;28;20489;-75
2022/07/06 19:27:06;;;;;;;2.73;1.40;;;15.20;96.30;;;;;;4974978;28;20179;-74
2022/07/06 19:29:31;;;;;;;6.27;1.00;;;15.20;96.30;;;;;;4974689;28;20273;-74
2022/07/06 19:32:01;;;;;;;2.83;1.00;;;15.30;95.20;;;;;;4957483;28;20174;-75
2022/07/06 19:34:26;;;;;;;4.10;1.27;;;15.30;96.30;;;;;;4974751;28;20186;-74
2022/07/06 19:36:51;;;;;;;2.00;0.80;;;15.20;96.30;;;;;;4957276;28;20462;-74
2022/07/06 19:39:18;;;;;;;4.50;1.00;;;15.10;96.30;;;;;;4956404;28;20201;-74
2022/07/06 19:41:45;;;;;;;13.20;1.47;;;15.10;96.30;;;;;;4974514;28;20167;-74
2022/07/06 19:44:11;;;;;;;9.77;1.10;;;15.00;96.30;;;;;;4974398;28;20516;-75
2022/07/06 19:46:38;;;;;;;4.33;1.10;;;15.00;96.30;;;;;;4956984;28;21049;-74
2022/07/06 19:49:03;;;;;;;3.73;0.90;;;14.80;96.30;;;;;;4956442;28;20206;-75
2022/07/06 19:51:29;;;;;;;5.60;1.13;;;14.70;96.30;;;;;;4974533;28;20480;-75
2022/07/06 19:53:54;;;;;;;9.93;1.30;;;14.50;96.30;;;;;;4974295;28;20182;-74
2022/07/06 19:56:20;;;;;;;2.20;1.00;;;14.20;96.30;;;;;;4974200;28;20201;-74
2022/07/06 19:58:47;;;;;;;1.20;0.70;;;14.00;96.30;;;;;;4974191;28;20178;-74
2022/07/06 20:01:13;;;;;;;8.53;1.03;;;13.80;96.30;;;;;;4956594;28;20229;-74
2022/07/06 20:03:39;;;;;;;3.73;1.40;;;13.70;96.30;;;;;;4973956;28;20426;-74
2022/07/06 20:06:04;;;;;;;2.77;0.90;;;13.60;96.30;;;;;;4974016;28;20417;-77
2022/07/06 20:08:30;;;;;;;4.90;0.97;;;13.50;96.30;;;;;;4956489;28;20193;-78
2022/07/06 20:10:56;;;;;;;3.17;0.80;;;13.40;96.30;;;;;;4974171;28;20574;-77
2022/07/06 20:13:22;;;;;;;1.00;0.70;;;13.30;96.30;;;;;;4973802;28;20182;-77
2022/07/06 20:15:48;;;;;;;8.07;0.97;;;13.30;96.30;;;;;;4956372;28;20496;-77
2022/07/06 20:18:14;;;;;;;3.83;0.93;;;13.20;96.30;;;;;;4973789;28;20958;-77
2022/07/06 20:20:40;;;;;;;1.93;0.90;;;13.20;96.30;;;;;;4956716;28;20194;-77
2022/07/06 20:23:05;;;;;;;3.07;0.70;;;13.20;96.30;;;;;;4957053;28;20406;-77
2022/07/06 20:25:31;;;;;;;1.50;0.77;;;13.10;96.30;;;;;;4973959;28;20179;-76
2022/07/06 20:27:56;;;;;;;2.03;0.97;;;13.10;96.30;;;;;;4973758;28;20280;-76
2022/07/06 20:30:22;;;;;;;2.13;0.90;;;13.10;96.30;;;;;;4972881;28;20638;-76
2022/07/06 20:32:48;;;;;;;4.30;1.20;;;13.20;96.30;;;;;;4956568;28;20182;-76
2022/07/06 20:35:13;;;;;;;4.83;1.03;;;13.00;96.30;;;;;;4972870;28;20545;-77
2022/07/06 20:37:39;;;;;;;5.83;1.10;;;13.00;96.30;;;;;;4972284;28;20210;-75
2022/07/06 20:40:05;;;;;;;5.73;1.23;;;12.90;96.30;;;;;;4971750;28;20744;-72
2022/07/06 20:42:31;;;;;;;8.43;1.63;;;12.80;96.30;;;;;;4971792;28;20262;-76
2022/07/06 20:44:56;;;;;;;7.00;1.63;;;12.70;96.30;;;;;;4971743;28;20525;-74
2022/07/06 20:47:22;;;;;;;3.63;0.77;;;12.60;96.30;;;;;;4971716;28;20237;-74
2022/07/06 20:49:47;;;;;;;7.87;1.10;;;12.40;96.30;;;;;;4971542;28;20609;-75
2022/07/06 20:52:13;;;;;;;3.90;1.00;;;12.30;96.30;;;;;;4954585;28;20182;-76
2022/07/06 20:54:38;;;;;;;1.23;0.80;;;12.20;96.30;;;;;;4973607;28;20178;-73
2022/07/06 20:57:05;;;;;;;6.30;0.87;;;12.10;96.30;;;;;;4973454;28;20206;-74
2022/07/06 20:59:32;;;;;;;4.87;0.97;;;12.10;96.30;;;;;;4973187;28;20586;-74
2022/07/06 21:01:58;;;;;;;3.57;0.87;;;12.00;96.30;;;;;;4973515;28;20422;-76
2022/07/06 21:04:24;;;;;;;3.77;1.17;;;12.10;96.30;;;;;;4973506;28;20414;-75
2022/07/06 21:06:49;;;;;;;1.30;0.80;;;12.20;96.30;;;;;;4973472;28;20510;-74
2022/07/06 21:09:15;;;;;;;4.00;0.83;;;12.30;96.30;;;;;;4973172;28;20202;-74
2022/07/06 21:11:40;;;;;;;3.27;1.00;;;12.40;96.30;;;;;;4973321;28;20268;-74
2022/07/06 21:14:06;;;;;;;11.43;1.00;;;12.40;96.30;;;;;;4973340;28;20264;-76
2022/07/06 21:16:31;;;;;;;6.87;1.20;;;12.40;96.30;;;;;;4973206;28;20231;-73
2022/07/06 21:18:56;;;;;;;4.90;1.10;;;12.40;96.30;;;;;;4973024;28;20670;-74
2022/07/06 21:21:22;;;;;;;2.40;0.90;;;12.40;96.30;;;;;;4973287;28;20268;-76
2022/07/06 21:23:47;;;;;;;6.13;1.00;;;12.30;96.30;;;;;;4973133;28;20185;-73
2022/07/06 21:26:13;;;;;;;6.37;1.00;;;12.30;96.30;;;;;;4973425;28;20518;-73
2022/07/06 21:28:39;;;;;;;1.83;0.90;;;12.30;96.30;;;;;;4972961;28;20655;-73
2022/07/06 21:31:04;;;;;;;2.87;0.70;;;12.20;96.30;;;;;;4973195;28;20248;-76
2022/07/06 21:33:31;;;;;;;2.33;0.90;;;12.20;96.30;;;;;;4956057;28;20737;-73
2022/07/06 21:35:56;;;;;;;3.53;0.93;;;12.30;96.30;;;;;;4973148;28;20206;-73
2022/07/06 21:38:22;;;;;;;2.10;0.70;;;12.30;96.30;;;;;;4972846;28;20445;-74
2022/07/06 21:40:48;;;;;;;7.33;0.90;;;12.30;96.30;;;;;;4972769;28;20197;-73
2022/07/06 21:43:14;;;;;;;5.60;1.00;;;12.30;96.30;;;;;;4974272;28;20776;-74
2022/07/06 21:45:39;;;;;;;2.77;1.00;;;12.30;96.30;;;;;;4976934;28;20192;-74
2022/07/06 21:48:05;;;;;;;2.13;0.80;;;12.40;96.30;;;;;;4976940;28;20182;-74
2022/07/06 21:50:30;;;;;;;2.83;0.80;;;12.30;96.30;;;;;;4976899;28;20229;-74
2022/07/06 21:52:56;;;;;;;3.50;0.90;;;12.30;96.30;;;;;;4976737;28;20757;-74
2022/07/06 21:55:22;;;;;;;4.07;0.90;;;12.20;96.30;;;;;;4976802;28;20573;-75
2022/07/06 21:57:47;;;;;;;3.37;1.00;;;12.10;96.30;;;;;;4976467;28;20194;-75
2022/07/06 22:00:14;;;;;;;2.13;0.90;;;12.10;96.30;;;;;;4976613;28;20194;-74
2022/07/06 22:02:40;;;;;;;6.73;1.03;;;12.20;96.30;;;;;;4976579;28;20186;-75
2022/07/06 22:05:06;;;;;;;3.70;1.53;;;12.20;96.30;;;;;;4976587;28;20414;-74
2022/07/06 22:07:32;;;;;;;2.30;0.80;;;12.20;96.30;;;;;;4976340;28;20227;-76
2022/07/06 22:09:57;;;;;;;3.43;1.20;;;12.20;96.30;;;;;;4976546;28;20201;-77
2022/07/06 22:12:23;;;;;;;3.63;0.80;;;12.20;96.30;;;;;;4959120;28;20174;-76
2022/07/06 22:14:49;;;;;;;6.57;0.93;;;12.20;96.30;;;;;;4959061;28;20220;-74
2022/07/06 22:17:14;;;;;;;2.67;1.07;;;12.20;96.30;;;;;;4976279;28;20198;-74
2022/07/06 22:19:40;;;;;;;4.60;0.93;;;12.20;96.30;;;;;;4976133;28;20725;-74
2022/07/06 22:22:05;;;;;;;3.00;1.20;;;12.20;96.30;;;;;;4976216;28;20249;-77
2022/07/06 22:24:31;;;;;;;2.00;1.00;;;12.20;96.30;;;;;;4958885;28;20225;-75
2022/07/06 22:26:56;;;;;;;5.73;0.90;;;12.00;96.30;;;;;;4976271;28;20233;-76
2022/07/06 22:29:22;;;;;;;4.10;1.10;;;11.80;96.30;;;;;;4958644;28;20611;-74
2022/07/06 22:31:47;;;;;;;1.53;0.90;;;11.70;96.30;;;;;;4976174;28;20174;-77
2022/07/06 22:34:13;;;;;;;2.47;0.90;;;11.60;96.30;;;;;;4976127;28;20178;-76
2022/07/06 22:36:38;;;;;;;3.03;1.20;;;11.50;96.30;;;;;;4975889;28;20249;-74
2022/07/06 22:39:04;;;;;;;1.87;1.20;;;11.40;96.30;;;;;;4975666;28;20558;-74
2022/07/06 22:41:30;;;;;;;5.43;1.20;;;11.20;96.30;;;;;;4975909;28;20202;-75
2022/07/06 22:43:58;;;;;;;2.80;0.90;;;11.10;96.30;;;;;;4975766;28;20185;-75
2022/07/06 22:46:24;;;;;;;3.33;1.10;;;11.00;96.30;;;;;;4975814;28;20221;-75
2022/07/06 22:48:49;;;;;;;4.57;1.10;;;11.00;96.30;;;;;;4975574;28;20433;-75
2022/07/06 22:51:15;;;;;;;3.40;0.93;;;10.90;96.30;;;;;;4975756;28;20178;-74
2022/07/06 22:53:40;;;;;;;7.60;1.27;;;11.00;96.30;;;;;;4975196;28;20178;-74
2022/07/06 22:56:07;;;;;;;1.87;1.00;;;11.10;96.30;;;;;;4959296;28;20174;-76
2022/07/06 22:58:34;;;;;;;2.20;1.13;;;11.20;96.30;;;;;;4975793;28;20570;-73
2022/07/06 23:01:00;;;;;;;3.00;0.80;;;11.30;96.30;;;;;;4976881;28;20413;-77
2022/07/06 23:03:26;;;;;;;6.87;1.10;;;11.30;96.30;;;;;;4975941;28;20787;-77
2022/07/06 23:05:51;;;;;;;2.23;1.27;;;11.40;96.30;;;;;;4975451;28;20414;-77
2022/07/06 23:08:17;;;;;;;3.20;1.10;;;11.50;96.30;;;;;;4974901;28;20182;-76
2022/07/06 23:10:43;;;;;;;4.33;1.00;;;11.50;96.30;;;;;;4975252;28;20205;-76
2022/07/06 23:13:09;;;;;;;1.47;0.80;;;11.50;96.30;;;;;;4975319;28;20250;-76
2022/07/06 23:15:35;;;;;;;4.80;1.07;;;11.80;96.30;;;;;;4958249;28;20245;-76